Decoded Metar for CYND (GATINEAU in QC, CANADA) (IATA:YND) | Meteo·Mobile Aviation Weather
aviador You're here:

CYND Decoded Metar

GATINEAU in QC, CANADA
Report Time2019-02-17 16:00:00
UTC Time2019-02-17 16:53:30
Flight Rules vfr VFR
Wind160° at 04 kt
W.Decomp.*RWY 09: 0.4 kt HW 4.0 kt RCW
W.Rank160° ranks 33
Current wind is below 160° avg. (5.1)
Visibility9999 m
Phenomena:N/A
Clouds:Few 220 Hf
Expected CloudBase > 2,400 ft AGL from Temp-Dew spread
CeilingNone
Temp-12°C (ISA -27)
Dew Point-18°C (61% RH)
AAT-16.9°C
QNH1024 hPa
Density Alt-3,484 ft
Elevation210 ft
Report Wrong Elevation
Raw Report
CYND 171600Z 16004KT 110V180 15SM FEW220 M12/M18 A3025 RMK CI2
SLP249=

Extra information for CYND:More info

Metar Taf Metar & Taf Last 4 Metars F.Rules Stats Wind Profile Meteogram Temp Stats Airport Information Weather charts Add Link Nearby VenuesMetar ALERT Operation Metar Decoded Social comments